sensor_id;sensor_type;location;lat;lon;timestamp;temperature;humidity
33699;DHT22;20032;52.436;13.312;2023-09-08T00:01:58;18.90;99.90
33699;DHT22;20032;52.436;13.312;2023-09-08T00:04:23;18.80;99.90
33699;DHT22;20032;52.436;13.312;2023-09-08T00:06:49;18.80;99.90
33699;DHT22;20032;52.436;13.312;2023-09-08T00:09:14;18.80;99.90
33699;DHT22;20032;52.436;13.312;2023-09-08T00:11:40;18.80;99.90
33699;DHT22;20032;52.436;13.312;2023-09-08T00:14:05;18.80;99.90
33699;DHT22;20032;52.436;13.312;2023-09-08T00:16:31;18.70;99.90
33699;DHT22;20032;52.436;13.312;2023-09-08T00:18:57;18.70;99.90
33699;DHT22;20032;52.436;13.312;2023-09-08T00:21:24;18.70;99.90
33699;DHT22;20032;52.436;13.312;2023-09-08T00:23:50;18.70;99.90
33699;DHT22;20032;52.436;13.312;2023-09-08T00:26:15;18.70;99.90
33699;DHT22;20032;52.436;13.312;2023-09-08T00:28:41;18.70;99.90
33699;DHT22;20032;52.436;13.312;2023-09-08T00:31:06;18.70;99.90
33699;DHT22;20032;52.436;13.312;2023-09-08T00:33:32;18.70;99.90
33699;DHT22;20032;52.436;13.312;2023-09-08T00:35:57;18.70;99.90
33699;DHT22;20032;52.436;13.312;2023-09-08T00:38:23;18.70;99.90
33699;DHT22;20032;52.436;13.312;2023-09-08T00:40:49;18.60;99.90
33699;DHT22;20032;52.436;13.312;2023-09-08T00:43:14;18.60;99.90
33699;DHT22;20032;52.436;13.312;2023-09-08T00:45:42;18.60;99.90
33699;DHT22;20032;52.436;13.312;2023-09-08T00:48:08;18.60;99.90
33699;DHT22;20032;52.436;13.312;2023-09-08T00:50:35;18.60;99.90
33699;DHT22;20032;52.436;13.312;2023-09-08T00:53:01;18.50;99.90
33699;DHT22;20032;52.436;13.312;2023-09-08T00:55:27;18.50;99.90
33699;DHT22;20032;52.436;13.312;2023-09-08T00:57:52;18.50;99.90
33699;DHT22;20032;52.436;13.312;2023-09-08T01:00:18;18.50;99.90
33699;DHT22;20032;52.436;13.312;2023-09-08T01:02:43;18.40;99.90
33699;DHT22;20032;52.436;13.312;2023-09-08T01:05:10;18.40;99.90
33699;DHT22;20032;52.436;13.312;2023-09-08T01:07:36;18.40;99.90
33699;DHT22;20032;52.436;13.312;2023-09-08T01:10:02;18.40;99.90
33699;DHT22;20032;52.436;13.312;2023-09-08T01:12:31;18.40;99.90
33699;DHT22;20032;52.436;13.312;2023-09-08T01:14:57;18.40;99.90
33699;DHT22;20032;52.436;13.312;2023-09-08T01:17:22;18.40;99.90
33699;DHT22;20032;52.436;13.312;2023-09-08T01:19:49;18.40;99.90
33699;DHT22;20032;52.436;13.312;2023-09-08T01:22:29;18.40;99.90
33699;DHT22;20032;52.436;13.312;2023-09-08T01:27:33;18.30;99.90
33699;DHT22;20032;52.436;13.312;2023-09-08T01:30:00;18.30;99.90
33699;DHT22;20032;52.436;13.312;2023-09-08T01:32:28;18.20;99.90
33699;DHT22;20032;52.436;13.312;2023-09-08T01:34:55;18.20;99.90
33699;DHT22;20032;52.436;13.312;2023-09-08T01:37:23;18.20;99.90
33699;DHT22;20032;52.436;13.312;2023-09-08T01:39:48;18.30;99.90
33699;DHT22;20032;52.436;13.312;2023-09-08T01:42:14;18.20;99.90
33699;DHT22;20032;52.436;13.312;2023-09-08T01:44:39;18.10;99.90
33699;DHT22;20032;52.436;13.312;2023-09-08T01:47:05;18.10;99.90
33699;DHT22;20032;52.436;13.312;2023-09-08T01:49:30;18.10;99.90
33699;DHT22;20032;52.436;13.312;2023-09-08T01:51:56;18.10;99.90
33699;DHT22;20032;52.436;13.312;2023-09-08T01:54:21;18.10;99.90
33699;DHT22;20032;52.436;13.312;2023-09-08T01:56:47;18.10;99.90
33699;DHT22;20032;52.436;13.312;2023-09-08T01:59:12;18.10;99.90
33699;DHT22;20032;52.436;13.312;2023-09-08T02:01:38;18.10;99.90
33699;DHT22;20032;52.436;13.312;2023-09-08T02:04:04;18.00;99.90
33699;DHT22;20032;52.436;13.312;2023-09-08T02:06:29;18.00;99.90
33699;DHT22;20032;52.436;13.312;2023-09-08T02:08:55;18.00;99.90
33699;DHT22;20032;52.436;13.312;2023-09-08T02:11:20;18.00;99.90
33699;DHT22;20032;52.436;13.312;2023-09-08T02:13:45;18.00;99.90
33699;DHT22;20032;52.436;13.312;2023-09-08T02:16:14;18.00;99.90
33699;DHT22;20032;52.436;13.312;2023-09-08T02:18:42;18.00;99.90
33699;DHT22;20032;52.436;13.312;2023-09-08T02:21:08;18.00;99.90
33699;DHT22;20032;52.436;13.312;2023-09-08T02:23:33;18.00;99.90
33699;DHT22;20032;52.436;13.312;2023-09-08T02:25:59;18.00;99.90
33699;DHT22;20032;52.436;13.312;2023-09-08T02:28:24;17.90;99.90
33699;DHT22;20032;52.436;13.312;2023-09-08T02:30:50;18.00;99.90
33699;DHT22;20032;52.436;13.312;2023-09-08T02:33:15;17.80;99.90
33699;DHT22;20032;52.436;13.312;2023-09-08T02:35:41;17.80;99.90
33699;DHT22;20032;52.436;13.312;2023-09-08T02:38:06;17.70;99.90
33699;DHT22;20032;52.436;13.312;2023-09-08T02:40:32;17.80;99.90
33699;DHT22;20032;52.436;13.312;2023-09-08T02:43:00;17.80;99.90
33699;DHT22;20032;52.436;13.312;2023-09-08T02:45:25;17.80;99.90
33699;DHT22;20032;52.436;13.312;2023-09-08T02:47:51;17.90;99.90
33699;DHT22;20032;52.436;13.312;2023-09-08T02:50:16;17.90;99.90
33699;DHT22;20032;52.436;13.312;2023-09-08T02:52:42;17.80;99.90
33699;DHT22;20032;52.436;13.312;2023-09-08T02:55:07;17.80;99.90
33699;DHT22;20032;52.436;13.312;2023-09-08T02:57:33;17.70;99.90
33699;DHT22;20032;52.436;13.312;2023-09-08T02:59:58;17.60;99.90
33699;DHT22;20032;52.436;13.312;2023-09-08T03:02:25;17.60;99.90
33699;DHT22;20032;52.436;13.312;2023-09-08T03:04:51;17.60;99.90
33699;DHT22;20032;52.436;13.312;2023-09-08T03:07:16;17.50;99.90
33699;DHT22;20032;52.436;13.312;2023-09-08T03:09:42;17.50;99.90
33699;DHT22;20032;52.436;13.312;2023-09-08T03:12:07;17.50;99.90
33699;DHT22;20032;52.436;13.312;2023-09-08T03:14:33;17.50;99.90
33699;DHT22;20032;52.436;13.312;2023-09-08T03:16:58;17.50;99.90
33699;DHT22;20032;52.436;13.312;2023-09-08T03:19:24;17.60;99.90
33699;DHT22;20032;52.436;13.312;2023-09-08T03:21:49;17.60;99.90
33699;DHT22;20032;52.436;13.312;2023-09-08T03:24:15;17.70;99.90
33699;DHT22;20032;52.436;13.312;2023-09-08T03:26:40;17.70;99.90
33699;DHT22;20032;52.436;13.312;2023-09-08T03:29:06;17.70;99.90
33699;DHT22;20032;52.436;13.312;2023-09-08T03:31:32;17.70;99.90
33699;DHT22;20032;52.436;13.312;2023-09-08T03:33:57;17.70;99.90
33699;DHT22;20032;52.436;13.312;2023-09-08T03:36:23;17.70;99.90
33699;DHT22;20032;52.436;13.312;2023-09-08T03:38:48;17.70;99.90
33699;DHT22;20032;52.436;13.312;2023-09-08T03:41:14;17.60;99.90
33699;DHT22;20032;52.436;13.312;2023-09-08T03:43:40;17.60;99.90
33699;DHT22;20032;52.436;13.312;2023-09-08T03:46:05;17.50;99.90
33699;DHT22;20032;52.436;13.312;2023-09-08T03:48:31;17.50;99.90
33699;DHT22;20032;52.436;13.312;2023-09-08T03:50:56;17.40;99.90
33699;DHT22;20032;52.436;13.312;2023-09-08T03:53:22;17.40;99.90
33699;DHT22;20032;52.436;13.312;2023-09-08T03:55:47;17.40;99.90
33699;DHT22;20032;52.436;13.312;2023-09-08T03:58:13;17.40;99.90
33699;DHT22;20032;52.436;13.312;2023-09-08T04:00:38;17.40;99.90
33699;DHT22;20032;52.436;13.312;2023-09-08T04:03:04;17.40;99.90
33699;DHT22;20032;52.436;13.312;2023-09-08T04:05:29;17.40;99.90
33699;DHT22;20032;52.436;13.312;2023-09-08T04:07:55;17.40;99.90
33699;DHT22;20032;52.436;13.312;2023-09-08T04:10:20;17.40;99.90
33699;DHT22;20032;52.436;13.312;2023-09-08T04:12:46;17.40;99.90
33699;DHT22;20032;52.436;13.312;2023-09-08T04:15:11;17.40;99.90
33699;DHT22;20032;52.436;13.312;2023-09-08T04:17:37;17.40;99.90
33699;DHT22;20032;52.436;13.312;2023-09-08T04:20:04;17.40;99.90
33699;DHT22;20032;52.436;13.312;2023-09-08T04:22:30;17.40;99.90
33699;DHT22;20032;52.436;13.312;2023-09-08T04:24:56;17.30;99.90
33699;DHT22;20032;52.436;13.312;2023-09-08T04:27:22;17.30;99.90
33699;DHT22;20032;52.436;13.312;2023-09-08T04:29:48;17.30;99.90
33699;DHT22;20032;52.436;13.312;2023-09-08T04:32:14;17.20;99.90
33699;DHT22;20032;52.436;13.312;2023-09-08T04:34:40;17.00;99.90
33699;DHT22;20032;52.436;13.312;2023-09-08T04:37:06;17.10;99.90
33699;DHT22;20032;52.436;13.312;2023-09-08T04:39:32;17.10;99.90
33699;DHT22;20032;52.436;13.312;2023-09-08T04:41:58;17.00;99.90
33699;DHT22;20032;52.436;13.312;2023-09-08T04:44:23;17.10;99.90
33699;DHT22;20032;52.436;13.312;2023-09-08T04:46:49;17.00;99.90
33699;DHT22;20032;52.436;13.312;2023-09-08T04:49:14;17.00;99.90
33699;DHT22;20032;52.436;13.312;2023-09-08T04:51:40;17.00;99.90
33699;DHT22;20032;52.436;13.312;2023-09-08T04:54:05;17.10;99.90
33699;DHT22;20032;52.436;13.312;2023-09-08T04:56:31;17.10;99.90
33699;DHT22;20032;52.436;13.312;2023-09-08T04:58:56;17.10;99.90
33699;DHT22;20032;52.436;13.312;2023-09-08T05:01:23;17.10;99.90
33699;DHT22;20032;52.436;13.312;2023-09-08T05:03:49;17.10;99.90
33699;DHT22;20032;52.436;13.312;2023-09-08T05:06:14;17.10;99.90
33699;DHT22;20032;52.436;13.312;2023-09-08T05:08:39;17.20;99.90
33699;DHT22;20032;52.436;13.312;2023-09-08T05:11:05;17.20;99.90
33699;DHT22;20032;52.436;13.312;2023-09-08T05:13:30;17.30;99.90
33699;DHT22;20032;52.436;13.312;2023-09-08T05:15:56;17.30;99.90
33699;DHT22;20032;52.436;13.312;2023-09-08T05:18:26;17.30;99.90
33699;DHT22;20032;52.436;13.312;2023-09-08T05:20:52;17.30;99.90
33699;DHT22;20032;52.436;13.312;2023-09-08T05:23:18;17.30;99.90
33699;DHT22;20032;52.436;13.312;2023-09-08T05:25:46;17.30;99.90
33699;DHT22;20032;52.436;13.312;2023-09-08T05:28:11;17.30;99.90
33699;DHT22;20032;52.436;13.312;2023-09-08T05:30:37;17.30;99.90
33699;DHT22;20032;52.436;13.312;2023-09-08T05:33:02;17.40;99.90
33699;DHT22;20032;52.436;13.312;2023-09-08T05:35:29;17.40;99.90
33699;DHT22;20032;52.436;13.312;2023-09-08T05:37:55;17.40;99.90
33699;DHT22;20032;52.436;13.312;2023-09-08T05:40:20;17.50;99.90
33699;DHT22;20032;52.436;13.312;2023-09-08T05:42:49;17.50;99.90
33699;DHT22;20032;52.436;13.312;2023-09-08T05:45:15;17.60;99.90
33699;DHT22;20032;52.436;13.312;2023-09-08T05:47:42;17.60;99.90
33699;DHT22;20032;52.436;13.312;2023-09-08T05:50:08;17.70;99.90
33699;DHT22;20032;52.436;13.312;2023-09-08T05:52:33;17.70;99.90
33699;DHT22;20032;52.436;13.312;2023-09-08T05:54:59;17.80;99.90
33699;DHT22;20032;52.436;13.312;2023-09-08T05:57:24;17.90;99.90
33699;DHT22;20032;52.436;13.312;2023-09-08T05:59:50;18.00;99.90
33699;DHT22;20032;52.436;13.312;2023-09-08T06:02:16;18.10;99.90
33699;DHT22;20032;52.436;13.312;2023-09-08T06:04:41;18.10;99.90
33699;DHT22;20032;52.436;13.312;2023-09-08T06:07:07;18.10;99.90
33699;DHT22;20032;52.436;13.312;2023-09-08T06:09:32;18.20;99.90
33699;DHT22;20032;52.436;13.312;2023-09-08T06:11:58;18.40;99.90
33699;DHT22;20032;52.436;13.312;2023-09-08T06:14:23;18.40;99.90
33699;DHT22;20032;52.436;13.312;2023-09-08T06:16:48;18.40;99.90
33699;DHT22;20032;52.436;13.312;2023-09-08T06:19:14;18.50;99.90
33699;DHT22;20032;52.436;13.312;2023-09-08T06:21:40;18.60;99.90
33699;DHT22;20032;52.436;13.312;2023-09-08T06:24:05;18.70;99.90
33699;DHT22;20032;52.436;13.312;2023-09-08T06:26:31;18.80;99.90
33699;DHT22;20032;52.436;13.312;2023-09-08T06:28:57;18.90;99.90
33699;DHT22;20032;52.436;13.312;2023-09-08T06:31:22;18.90;99.90
33699;DHT22;20032;52.436;13.312;2023-09-08T06:33:48;18.90;99.90
33699;DHT22;20032;52.436;13.312;2023-09-08T06:36:17;19.00;99.90
33699;DHT22;20032;52.436;13.312;2023-09-08T06:38:43;19.10;99.90
33699;DHT22;20032;52.436;13.312;2023-09-08T06:41:10;19.10;99.90
33699;DHT22;20032;52.436;13.312;2023-09-08T06:43:36;19.10;99.90
33699;DHT22;20032;52.436;13.312;2023-09-08T06:46:01;19.20;99.90
33699;DHT22;20032;52.436;13.312;2023-09-08T06:48:27;19.20;99.90
33699;DHT22;20032;52.436;13.312;2023-09-08T06:50:54;19.20;99.90
33699;DHT22;20032;52.436;13.312;2023-09-08T06:53:22;19.30;99.90
33699;DHT22;20032;52.436;13.312;2023-09-08T06:55:47;19.40;99.90
33699;DHT22;20032;52.436;13.312;2023-09-08T06:58:13;19.60;99.90
33699;DHT22;20032;52.436;13.312;2023-09-08T07:00:40;19.70;99.90
33699;DHT22;20032;52.436;13.312;2023-09-08T07:03:06;19.80;99.90
33699;DHT22;20032;52.436;13.312;2023-09-08T07:05:31;19.80;99.90
33699;DHT22;20032;52.436;13.312;2023-09-08T07:07:57;19.90;99.90
33699;DHT22;20032;52.436;13.312;2023-09-08T07:10:23;20.00;99.90
33699;DHT22;20032;52.436;13.312;2023-09-08T07:12:48;20.10;99.90
33699;DHT22;20032;52.436;13.312;2023-09-08T07:15:14;20.20;99.90
33699;DHT22;20032;52.436;13.312;2023-09-08T07:17:40;20.20;99.90
33699;DHT22;20032;52.436;13.312;2023-09-08T07:20:06;20.30;99.90
33699;DHT22;20032;52.436;13.312;2023-09-08T07:22:31;20.30;99.90
33699;DHT22;20032;52.436;13.312;2023-09-08T07:24:57;20.40;99.90
33699;DHT22;20032;52.436;13.312;2023-09-08T07:27:22;20.40;99.90
33699;DHT22;20032;52.436;13.312;2023-09-08T07:29:48;20.60;99.90
33699;DHT22;20032;52.436;13.312;2023-09-08T07:32:15;20.60;99.90
33699;DHT22;20032;52.436;13.312;2023-09-08T07:34:40;20.70;99.90
33699;DHT22;20032;52.436;13.312;2023-09-08T07:37:06;20.70;99.90
33699;DHT22;20032;52.436;13.312;2023-09-08T07:39:32;20.80;99.90
33699;DHT22;20032;52.436;13.312;2023-09-08T07:41:58;20.90;99.90
33699;DHT22;20032;52.436;13.312;2023-09-08T07:44:24;20.90;99.90
33699;DHT22;20032;52.436;13.312;2023-09-08T07:46:49;21.00;99.90
33699;DHT22;20032;52.436;13.312;2023-09-08T07:49:17;21.10;99.90
33699;DHT22;20032;52.436;13.312;2023-09-08T07:51:45;21.20;99.90
33699;DHT22;20032;52.436;13.312;2023-09-08T07:54:10;21.30;99.90
33699;DHT22;20032;52.436;13.312;2023-09-08T07:56:36;21.40;99.90
33699;DHT22;20032;52.436;13.312;2023-09-08T07:59:01;21.50;99.90
33699;DHT22;20032;52.436;13.312;2023-09-08T08:01:27;21.60;99.90
33699;DHT22;20032;52.436;13.312;2023-09-08T08:03:53;21.60;99.90
33699;DHT22;20032;52.436;13.312;2023-09-08T08:06:18;21.70;99.90
33699;DHT22;20032;52.436;13.312;2023-09-08T08:08:43;21.80;99.90
33699;DHT22;20032;52.436;13.312;2023-09-08T08:11:12;21.90;99.90
33699;DHT22;20032;52.436;13.312;2023-09-08T08:13:38;22.00;99.90
33699;DHT22;20032;52.436;13.312;2023-09-08T08:16:04;22.00;99.90
33699;DHT22;20032;52.436;13.312;2023-09-08T08:18:29;22.10;99.90
33699;DHT22;20032;52.436;13.312;2023-09-08T08:20:56;22.30;99.90
33699;DHT22;20032;52.436;13.312;2023-09-08T08:23:21;22.30;99.90
33699;DHT22;20032;52.436;13.312;2023-09-08T08:25:49;22.40;99.90
33699;DHT22;20032;52.436;13.312;2023-09-08T08:28:14;22.50;99.90
33699;DHT22;20032;52.436;13.312;2023-09-08T08:30:40;22.60;99.90
33699;DHT22;20032;52.436;13.312;2023-09-08T08:33:06;22.70;99.90
33699;DHT22;20032;52.436;13.312;2023-09-08T08:35:31;22.80;99.90
33699;DHT22;20032;52.436;13.312;2023-09-08T08:37:59;22.90;99.90
33699;DHT22;20032;52.436;13.312;2023-09-08T08:40:25;22.90;99.90
33699;DHT22;20032;52.436;13.312;2023-09-08T08:42:55;23.00;99.90
33699;DHT22;20032;52.436;13.312;2023-09-08T08:45:23;23.10;99.90
33699;DHT22;20032;52.436;13.312;2023-09-08T08:47:50;23.20;99.90
33699;DHT22;20032;52.436;13.312;2023-09-08T08:50:17;23.30;99.90
33699;DHT22;20032;52.436;13.312;2023-09-08T08:52:43;23.30;99.90
33699;DHT22;20032;52.436;13.312;2023-09-08T08:55:09;23.40;99.90
33699;DHT22;20032;52.436;13.312;2023-09-08T08:57:37;23.50;99.90
33699;DHT22;20032;52.436;13.312;2023-09-08T09:00:06;23.60;99.90
33699;DHT22;20032;52.436;13.312;2023-09-08T09:02:36;23.80;99.90
33699;DHT22;20032;52.436;13.312;2023-09-08T09:05:02;23.80;99.90
33699;DHT22;20032;52.436;13.312;2023-09-08T09:07:28;24.00;99.90
33699;DHT22;20032;52.436;13.312;2023-09-08T09:09:54;24.10;99.90
33699;DHT22;20032;52.436;13.312;2023-09-08T09:12:20;24.20;99.90
33699;DHT22;20032;52.436;13.312;2023-09-08T09:14:47;24.30;99.90
33699;DHT22;20032;52.436;13.312;2023-09-08T09:17:14;24.50;99.90
33699;DHT22;20032;52.436;13.312;2023-09-08T09:19:40;24.60;99.90
33699;DHT22;20032;52.436;13.312;2023-09-08T09:22:05;24.80;99.90
33699;DHT22;20032;52.436;13.312;2023-09-08T09:24:34;24.90;99.90
33699;DHT22;20032;52.436;13.312;2023-09-08T09:27:03;25.10;99.90
33699;DHT22;20032;52.436;13.312;2023-09-08T09:29:32;25.20;99.90
33699;DHT22;20032;52.436;13.312;2023-09-08T09:32:02;25.40;99.90
33699;DHT22;20032;52.436;13.312;2023-09-08T09:34:29;25.50;99.90
33699;DHT22;20032;52.436;13.312;2023-09-08T09:36:55;25.60;99.90
33699;DHT22;20032;52.436;13.312;2023-09-08T09:39:23;25.80;99.90
33699;DHT22;20032;52.436;13.312;2023-09-08T09:41:53;26.00;99.90
33699;DHT22;20032;52.436;13.312;2023-09-08T09:44:19;26.00;99.90
33699;DHT22;20032;52.436;13.312;2023-09-08T09:46:46;26.10;99.90
33699;DHT22;20032;52.436;13.312;2023-09-08T09:49:14;26.30;99.90
33699;DHT22;20032;52.436;13.312;2023-09-08T09:51:42;26.40;99.90
33699;DHT22;20032;52.436;13.312;2023-09-08T09:54:08;26.40;99.90
33699;DHT22;20032;52.436;13.312;2023-09-08T09:56:34;26.60;99.90
33699;DHT22;20032;52.436;13.312;2023-09-08T09:59:03;26.70;99.90
33699;DHT22;20032;52.436;13.312;2023-09-08T10:01:29;26.80;99.90
33699;DHT22;20032;52.436;13.312;2023-09-08T10:03:56;26.90;99.90
33699;DHT22;20032;52.436;13.312;2023-09-08T10:06:23;27.10;99.90
33699;DHT22;20032;52.436;13.312;2023-09-08T10:08:51;27.20;99.90
33699;DHT22;20032;52.436;13.312;2023-09-08T10:11:19;27.30;99.90
33699;DHT22;20032;52.436;13.312;2023-09-08T10:13:49;27.30;99.90
33699;DHT22;20032;52.436;13.312;2023-09-08T10:16:19;27.50;99.90
33699;DHT22;20032;52.436;13.312;2023-09-08T10:18:46;27.70;99.90
33699;DHT22;20032;52.436;13.312;2023-09-08T10:21:13;27.80;99.90
33699;DHT22;20032;52.436;13.312;2023-09-08T10:23:44;27.90;99.90
33699;DHT22;20032;52.436;13.312;2023-09-08T10:26:16;28.00;99.90
33699;DHT22;20032;52.436;13.312;2023-09-08T10:28:43;28.10;99.90
33699;DHT22;20032;52.436;13.312;2023-09-08T10:31:09;28.40;99.50
33699;DHT22;20032;52.436;13.312;2023-09-08T10:33:36;28.50;99.00
33699;DHT22;20032;52.436;13.312;2023-09-08T10:36:03;28.70;99.10
33699;DHT22;20032;52.436;13.312;2023-09-08T10:38:32;28.90;98.50
33699;DHT22;20032;52.436;13.312;2023-09-08T10:43:57;28.40;98.50
33699;DHT22;20032;52.436;13.312;2023-09-08T10:46:27;28.50;98.40
33699;DHT22;20032;52.436;13.312;2023-09-08T10:49:01;28.60;97.20
33699;DHT22;20032;52.436;13.312;2023-09-08T10:51:29;28.90;96.90
33699;DHT22;20032;52.436;13.312;2023-09-08T10:53:54;29.00;97.90
33699;DHT22;20032;52.436;13.312;2023-09-08T10:56:20;29.40;96.50
33699;DHT22;20032;52.436;13.312;2023-09-08T10:58:50;29.60;95.50
33699;DHT22;20032;52.436;13.312;2023-09-08T11:01:18;29.70;96.20
33699;DHT22;20032;52.436;13.312;2023-09-08T11:03:45;30.00;95.30
33699;DHT22;20032;52.436;13.312;2023-09-08T11:06:14;30.30;94.40
33699;DHT22;20032;52.436;13.312;2023-09-08T11:08:42;30.50;93.80
33699;DHT22;20032;52.436;13.312;2023-09-08T11:11:11;30.40;93.70
33699;DHT22;20032;52.436;13.312;2023-09-08T11:13:36;30.40;93.30
33699;DHT22;20032;52.436;13.312;2023-09-08T11:16:03;30.30;93.20
33699;DHT22;20032;52.436;13.312;2023-09-08T11:18:30;30.40;92.40
33699;DHT22;20032;52.436;13.312;2023-09-08T11:20:56;30.50;92.90
33699;DHT22;20032;52.436;13.312;2023-09-08T11:23:22;30.80;91.90
33699;DHT22;20032;52.436;13.312;2023-09-08T11:25:50;31.20;91.50
33699;DHT22;20032;52.436;13.312;2023-09-08T11:28:17;31.10;91.60
33699;DHT22;20032;52.436;13.312;2023-09-08T11:30:42;30.90;91.60
33699;DHT22;20032;52.436;13.312;2023-09-08T11:33:24;30.80;92.10
33699;DHT22;20032;52.436;13.312;2023-09-08T11:35:50;31.00;92.70
33699;DHT22;20032;52.436;13.312;2023-09-08T11:38:16;31.40;91.20
33699;DHT22;20032;52.436;13.312;2023-09-08T11:40:42;31.70;90.70
33699;DHT22;20032;52.436;13.312;2023-09-08T11:43:07;32.20;88.10
33699;DHT22;20032;52.436;13.312;2023-09-08T11:45:35;32.10;88.20
33699;DHT22;20032;52.436;13.312;2023-09-08T11:48:00;32.10;87.80
33699;DHT22;20032;52.436;13.312;2023-09-08T11:50:26;32.30;87.50
33699;DHT22;20032;52.436;13.312;2023-09-08T11:52:53;32.80;85.80
33699;DHT22;20032;52.436;13.312;2023-09-08T11:55:21;32.80;83.90
33699;DHT22;20032;52.436;13.312;2023-09-08T11:57:49;32.80;83.90
33699;DHT22;20032;52.436;13.312;2023-09-08T12:00:17;32.80;85.00
33699;DHT22;20032;52.436;13.312;2023-09-08T12:02:44;32.90;83.20
33699;DHT22;20032;52.436;13.312;2023-09-08T12:05:13;32.90;83.50
33699;DHT22;20032;52.436;13.312;2023-09-08T12:07:39;33.10;84.30
33699;DHT22;20032;52.436;13.312;2023-09-08T12:10:09;33.40;84.00
33699;DHT22;20032;52.436;13.312;2023-09-08T12:12:42;33.90;83.40
33699;DHT22;20032;52.436;13.312;2023-09-08T12:15:08;34.10;82.80
33699;DHT22;20032;52.436;13.312;2023-09-08T12:17:46;34.00;82.30
33699;DHT22;20032;52.436;13.312;2023-09-08T12:20:14;33.90;83.60
33699;DHT22;20032;52.436;13.312;2023-09-08T12:22:47;33.90;83.60
33699;DHT22;20032;52.436;13.312;2023-09-08T12:25:14;33.90;80.20
33699;DHT22;20032;52.436;13.312;2023-09-08T12:27:39;33.80;79.80
33699;DHT22;20032;52.436;13.312;2023-09-08T12:30:05;33.90;79.10
33699;DHT22;20032;52.436;13.312;2023-09-08T12:32:32;34.40;79.40
33699;DHT22;20032;52.436;13.312;2023-09-08T12:34:58;34.80;79.00
33699;DHT22;20032;52.436;13.312;2023-09-08T12:37:25;34.80;78.40
33699;DHT22;20032;52.436;13.312;2023-09-08T12:39:53;34.60;78.30
33699;DHT22;20032;52.436;13.312;2023-09-08T12:42:20;34.70;79.30
33699;DHT22;20032;52.436;13.312;2023-09-08T12:44:46;35.10;77.30
33699;DHT22;20032;52.436;13.312;2023-09-08T12:47:12;35.20;77.10
33699;DHT22;20032;52.436;13.312;2023-09-08T12:49:38;35.20;76.70
33699;DHT22;20032;52.436;13.312;2023-09-08T12:52:04;35.40;76.70
33699;DHT22;20032;52.436;13.312;2023-09-08T12:54:30;35.50;77.10
33699;DHT22;20032;52.436;13.312;2023-09-08T12:56:55;35.50;77.20
33699;DHT22;20032;52.436;13.312;2023-09-08T12:59:20;35.40;75.50
33699;DHT22;20032;52.436;13.312;2023-09-08T13:01:46;35.60;74.30
33699;DHT22;20032;52.436;13.312;2023-09-08T13:04:11;35.90;73.70
33699;DHT22;20032;52.436;13.312;2023-09-08T13:06:37;35.90;73.30
33699;DHT22;20032;52.436;13.312;2023-09-08T13:09:02;35.60;74.00
33699;DHT22;20032;52.436;13.312;2023-09-08T13:11:28;35.40;73.50
33699;DHT22;20032;52.436;13.312;2023-09-08T13:13:53;35.60;73.50
33699;DHT22;20032;52.436;13.312;2023-09-08T13:16:19;35.90;73.40
33699;DHT22;20032;52.436;13.312;2023-09-08T13:18:45;36.10;72.60
33699;DHT22;20032;52.436;13.312;2023-09-08T13:21:11;36.00;73.10
33699;DHT22;20032;52.436;13.312;2023-09-08T13:23:36;36.30;72.80
33699;DHT22;20032;52.436;13.312;2023-09-08T13:26:02;36.20;73.00
33699;DHT22;20032;52.436;13.312;2023-09-08T13:28:27;36.30;72.50
33699;DHT22;20032;52.436;13.312;2023-09-08T13:30:53;36.10;73.30
33699;DHT22;20032;52.436;13.312;2023-09-08T13:33:18;36.00;72.60
33699;DHT22;20032;52.436;13.312;2023-09-08T13:35:44;36.10;72.40
33699;DHT22;20032;52.436;13.312;2023-09-08T13:38:09;35.60;72.50
33699;DHT22;20032;52.436;13.312;2023-09-08T13:40:35;35.10;72.30
33699;DHT22;20032;52.436;13.312;2023-09-08T13:43:00;34.50;74.20
33699;DHT22;20032;52.436;13.312;2023-09-08T13:45:26;34.10;76.20
33699;DHT22;20032;52.436;13.312;2023-09-08T13:47:51;33.50;76.50
33699;DHT22;20032;52.436;13.312;2023-09-08T13:50:17;33.20;75.40
33699;DHT22;20032;52.436;13.312;2023-09-08T13:52:43;32.80;78.00
33699;DHT22;20032;52.436;13.312;2023-09-08T13:55:09;32.70;76.90
33699;DHT22;20032;52.436;13.312;2023-09-08T13:57:35;32.70;77.40
33699;DHT22;20032;52.436;13.312;2023-09-08T14:00:02;33.00;77.20
33699;DHT22;20032;52.436;13.312;2023-09-08T14:02:27;33.10;77.50
33699;DHT22;20032;52.436;13.312;2023-09-08T14:04:53;32.80;77.50
33699;DHT22;20032;52.436;13.312;2023-09-08T14:07:18;32.60;77.70
33699;DHT22;20032;52.436;13.312;2023-09-08T14:09:44;32.30;76.80
33699;DHT22;20032;52.436;13.312;2023-09-08T14:12:09;32.10;78.00
33699;DHT22;20032;52.436;13.312;2023-09-08T14:14:35;32.10;79.50
33699;DHT22;20032;52.436;13.312;2023-09-08T14:17:00;32.00;79.80
33699;DHT22;20032;52.436;13.312;2023-09-08T14:19:26;31.90;78.50
33699;DHT22;20032;52.436;13.312;2023-09-08T14:21:51;32.30;78.90
33699;DHT22;20032;52.436;13.312;2023-09-08T14:24:17;32.40;79.40
33699;DHT22;20032;52.436;13.312;2023-09-08T14:26:42;32.20;77.70
33699;DHT22;20032;52.436;13.312;2023-09-08T14:29:08;32.20;77.30
33699;DHT22;20032;52.436;13.312;2023-09-08T14:31:33;31.80;78.30
33699;DHT22;20032;52.436;13.312;2023-09-08T14:33:59;32.00;77.10
33699;DHT22;20032;52.436;13.312;2023-09-08T14:36:25;32.30;77.70
33699;DHT22;20032;52.436;13.312;2023-09-08T14:38:50;32.30;76.80
33699;DHT22;20032;52.436;13.312;2023-09-08T14:41:15;32.20;78.20
33699;DHT22;20032;52.436;13.312;2023-09-08T14:43:41;32.20;77.30
33699;DHT22;20032;52.436;13.312;2023-09-08T14:46:07;31.80;76.80
33699;DHT22;20032;52.436;13.312;2023-09-08T14:48:33;31.50;77.80
33699;DHT22;20032;52.436;13.312;2023-09-08T14:50:59;31.30;79.70
33699;DHT22;20032;52.436;13.312;2023-09-08T14:53:24;31.10;79.30
33699;DHT22;20032;52.436;13.312;2023-09-08T14:55:50;31.00;79.40
33699;DHT22;20032;52.436;13.312;2023-09-08T14:58:16;30.80;79.40
33699;DHT22;20032;52.436;13.312;2023-09-08T15:00:42;30.70;79.60
33699;DHT22;20032;52.436;13.312;2023-09-08T15:03:08;30.70;80.90
33699;DHT22;20032;52.436;13.312;2023-09-08T15:05:37;30.60;81.70
33699;DHT22;20032;52.436;13.312;2023-09-08T15:08:03;30.50;82.50
33699;DHT22;20032;52.436;13.312;2023-09-08T15:10:29;30.60;80.80
33699;DHT22;20032;52.436;13.312;2023-09-08T15:12:54;30.80;80.40
33699;DHT22;20032;52.436;13.312;2023-09-08T15:15:20;31.00;80.10